sensor_id;sensor_type;location;lat;lon;timestamp;temperature;humidity
6662;DHT22;3367;48.714;8.994;2023-04-01T00:00:22;7.50;99.90
6662;DHT22;3367;48.714;8.994;2023-04-01T00:02:50;7.50;99.90
6662;DHT22;3367;48.714;8.994;2023-04-01T00:05:17;7.50;1.00
6662;DHT22;3367;48.714;8.994;2023-04-01T00:07:44;7.50;99.90
6662;DHT22;3367;48.714;8.994;2023-04-01T00:10:12;7.50;1.00
6662;DHT22;3367;48.714;8.994;2023-04-01T00:12:39;7.50;1.00
6662;DHT22;3367;48.714;8.994;2023-04-01T00:15:07;7.50;99.90
6662;DHT22;3367;48.714;8.994;2023-04-01T00:17:34;7.50;99.90
6662;DHT22;3367;48.714;8.994;2023-04-01T00:20:05;7.50;99.90
6662;DHT22;3367;48.714;8.994;2023-04-01T00:22:33;7.50;99.90
6662;DHT22;3367;48.714;8.994;2023-04-01T00:25:00;7.50;99.90
6662;DHT22;3367;48.714;8.994;2023-04-01T00:27:27;7.40;99.90
6662;DHT22;3367;48.714;8.994;2023-04-01T00:29:54;7.50;99.90
6662;DHT22;3367;48.714;8.994;2023-04-01T00:32:20;7.50;1.00
6662;DHT22;3367;48.714;8.994;2023-04-01T00:34:50;7.50;1.00
6662;DHT22;3367;48.714;8.994;2023-04-01T00:37:18;7.60;98.70
6662;DHT22;3367;48.714;8.994;2023-04-01T00:39:46;7.60;99.90
6662;DHT22;3367;48.714;8.994;2023-04-01T00:42:14;7.60;99.90
6662;DHT22;3367;48.714;8.994;2023-04-01T00:44:41;7.60;99.90
6662;DHT22;3367;48.714;8.994;2023-04-01T00:47:08;7.60;99.90
6662;DHT22;3367;48.714;8.994;2023-04-01T00:49:37;7.60;99.90
6662;DHT22;3367;48.714;8.994;2023-04-01T00:52:07;7.60;99.90
6662;DHT22;3367;48.714;8.994;2023-04-01T00:54:36;7.60;99.90
6662;DHT22;3367;48.714;8.994;2023-04-01T00:57:06;7.60;99.90
6662;DHT22;3367;48.714;8.994;2023-04-01T00:59:37;7.60;1.00
6662;DHT22;3367;48.714;8.994;2023-04-01T01:02:07;7.60;1.00
6662;DHT22;3367;48.714;8.994;2023-04-01T01:04:36;7.60;1.00
6662;DHT22;3367;48.714;8.994;2023-04-01T01:07:17;7.60;1.00
6662;DHT22;3367;48.714;8.994;2023-04-01T01:09:56;7.60;1.00
6662;DHT22;3367;48.714;8.994;2023-04-01T01:12:33;7.60;1.00
6662;DHT22;3367;48.714;8.994;2023-04-01T01:15:06;7.50;1.00
6662;DHT22;3367;48.714;8.994;2023-04-01T01:17:44;7.50;1.00
6662;DHT22;3367;48.714;8.994;2023-04-01T01:20:42;7.60;1.00
6662;DHT22;3367;48.714;8.994;2023-04-01T01:23:57;7.60;1.00
6662;DHT22;3367;48.714;8.994;2023-04-01T01:26:42;7.60;1.00
6662;DHT22;3367;48.714;8.994;2023-04-01T01:29:41;7.60;1.00
6662;DHT22;3367;48.714;8.994;2023-04-01T01:32:15;7.60;1.00
6662;DHT22;3367;48.714;8.994;2023-04-01T01:34:51;7.60;1.00
6662;DHT22;3367;48.714;8.994;2023-04-01T01:37:24;7.60;1.00
6662;DHT22;3367;48.714;8.994;2023-04-01T01:39:56;7.60;1.00
6662;DHT22;3367;48.714;8.994;2023-04-01T01:42:26;7.60;1.00
6662;DHT22;3367;48.714;8.994;2023-04-01T01:44:55;7.60;1.00
6662;DHT22;3367;48.714;8.994;2023-04-01T01:47:23;7.60;99.90
6662;DHT22;3367;48.714;8.994;2023-04-01T01:49:51;7.60;99.90
6662;DHT22;3367;48.714;8.994;2023-04-01T01:52:20;7.60;99.90
6662;DHT22;3367;48.714;8.994;2023-04-01T01:54:48;7.50;1.00
6662;DHT22;3367;48.714;8.994;2023-04-01T01:57:17;7.60;1.00
6662;DHT22;3367;48.714;8.994;2023-04-01T01:59:47;7.60;1.00
6662;DHT22;3367;48.714;8.994;2023-04-01T02:02:15;7.50;1.00
6662;DHT22;3367;48.714;8.994;2023-04-01T02:04:44;7.50;1.00
6662;DHT22;3367;48.714;8.994;2023-04-01T02:07:15;7.50;1.00
6662;DHT22;3367;48.714;8.994;2023-04-01T02:09:44;7.50;1.00
6662;DHT22;3367;48.714;8.994;2023-04-01T02:12:13;7.50;1.00
6662;DHT22;3367;48.714;8.994;2023-04-01T02:14:44;7.50;1.00
6662;DHT22;3367;48.714;8.994;2023-04-01T02:17:14;7.50;1.00
6662;DHT22;3367;48.714;8.994;2023-04-01T02:19:47;7.50;1.00
6662;DHT22;3367;48.714;8.994;2023-04-01T02:22:17;7.40;1.00
6662;DHT22;3367;48.714;8.994;2023-04-01T02:24:48;7.40;1.00
6662;DHT22;3367;48.714;8.994;2023-04-01T02:27:15;7.40;1.00
6662;DHT22;3367;48.714;8.994;2023-04-01T02:29:42;7.40;1.00
6662;DHT22;3367;48.714;8.994;2023-04-01T02:32:09;7.40;1.00
6662;DHT22;3367;48.714;8.994;2023-04-01T02:34:37;7.40;1.00
6662;DHT22;3367;48.714;8.994;2023-04-01T02:37:03;7.40;1.00
6662;DHT22;3367;48.714;8.994;2023-04-01T02:39:30;7.40;99.90
6662;DHT22;3367;48.714;8.994;2023-04-01T02:41:59;7.40;99.90
6662;DHT22;3367;48.714;8.994;2023-04-01T02:44:26;7.30;1.00
6662;DHT22;3367;48.714;8.994;2023-04-01T02:46:52;7.30;1.00
6662;DHT22;3367;48.714;8.994;2023-04-01T02:49:19;7.30;1.00
6662;DHT22;3367;48.714;8.994;2023-04-01T02:51:46;7.30;1.00
6662;DHT22;3367;48.714;8.994;2023-04-01T02:54:13;7.30;1.00
6662;DHT22;3367;48.714;8.994;2023-04-01T02:56:39;7.20;1.00
6662;DHT22;3367;48.714;8.994;2023-04-01T02:59:07;7.20;1.00
6662;DHT22;3367;48.714;8.994;2023-04-01T03:01:34;7.20;1.00
6662;DHT22;3367;48.714;8.994;2023-04-01T03:04:01;7.20;1.00
6662;DHT22;3367;48.714;8.994;2023-04-01T03:06:27;7.20;1.00
6662;DHT22;3367;48.714;8.994;2023-04-01T03:08:55;7.20;1.00
6662;DHT22;3367;48.714;8.994;2023-04-01T03:11:21;7.20;1.00
6662;DHT22;3367;48.714;8.994;2023-04-01T03:13:48;7.20;1.00
6662;DHT22;3367;48.714;8.994;2023-04-01T03:16:16;7.20;1.00
6662;DHT22;3367;48.714;8.994;2023-04-01T03:18:43;7.10;99.90
6662;DHT22;3367;48.714;8.994;2023-04-01T03:21:14;7.10;1.00
6662;DHT22;3367;48.714;8.994;2023-04-01T03:23:41;7.10;1.00
6662;DHT22;3367;48.714;8.994;2023-04-01T03:26:08;7.10;99.90
6662;DHT22;3367;48.714;8.994;2023-04-01T03:28:35;7.10;1.00
6662;DHT22;3367;48.714;8.994;2023-04-01T03:31:02;7.10;99.90
6662;DHT22;3367;48.714;8.994;2023-04-01T03:33:30;7.10;99.90
6662;DHT22;3367;48.714;8.994;2023-04-01T03:35:57;7.20;99.90
6662;DHT22;3367;48.714;8.994;2023-04-01T03:38:24;7.20;1.00
6662;DHT22;3367;48.714;8.994;2023-04-01T03:40:50;7.20;1.00
6662;DHT22;3367;48.714;8.994;2023-04-01T03:43:17;7.20;1.00
6662;DHT22;3367;48.714;8.994;2023-04-01T03:45:45;7.20;1.00
6662;DHT22;3367;48.714;8.994;2023-04-01T03:48:11;7.20;1.00
6662;DHT22;3367;48.714;8.994;2023-04-01T03:50:39;7.20;1.00
6662;DHT22;3367;48.714;8.994;2023-04-01T03:53:06;7.20;1.00
6662;DHT22;3367;48.714;8.994;2023-04-01T03:55:33;7.10;99.90
6662;DHT22;3367;48.714;8.994;2023-04-01T03:58:00;7.10;99.90
6662;DHT22;3367;48.714;8.994;2023-04-01T04:00:27;7.00;99.90
6662;DHT22;3367;48.714;8.994;2023-04-01T04:02:54;7.00;99.90
6662;DHT22;3367;48.714;8.994;2023-04-01T04:05:22;7.00;1.00
6662;DHT22;3367;48.714;8.994;2023-04-01T04:07:51;6.90;1.00
6662;DHT22;3367;48.714;8.994;2023-04-01T04:10:19;6.90;1.00
6662;DHT22;3367;48.714;8.994;2023-04-01T04:12:46;6.80;1.00
6662;DHT22;3367;48.714;8.994;2023-04-01T04:15:12;6.80;1.00
6662;DHT22;3367;48.714;8.994;2023-04-01T04:17:39;6.80;1.00
6662;DHT22;3367;48.714;8.994;2023-04-01T04:20:07;6.70;1.00
6662;DHT22;3367;48.714;8.994;2023-04-01T04:22:34;6.70;1.00
6662;DHT22;3367;48.714;8.994;2023-04-01T04:25:03;6.60;1.00
6662;DHT22;3367;48.714;8.994;2023-04-01T04:27:29;6.50;99.90
6662;DHT22;3367;48.714;8.994;2023-04-01T04:29:56;6.50;99.90
6662;DHT22;3367;48.714;8.994;2023-04-01T04:32:23;6.50;1.00
6662;DHT22;3367;48.714;8.994;2023-04-01T04:34:49;6.50;1.00
6662;DHT22;3367;48.714;8.994;2023-04-01T04:37:16;6.50;1.00
6662;DHT22;3367;48.714;8.994;2023-04-01T04:39:43;6.40;1.00
6662;DHT22;3367;48.714;8.994;2023-04-01T04:42:11;6.40;1.00
6662;DHT22;3367;48.714;8.994;2023-04-01T04:44:38;6.50;1.00
6662;DHT22;3367;48.714;8.994;2023-04-01T04:47:05;6.50;96.90
6662;DHT22;3367;48.714;8.994;2023-04-01T04:49:32;6.50;99.90
6662;DHT22;3367;48.714;8.994;2023-04-01T04:51:58;6.50;99.90
6662;DHT22;3367;48.714;8.994;2023-04-01T04:54:25;6.50;1.00
6662;DHT22;3367;48.714;8.994;2023-04-01T04:56:52;6.50;1.00
6662;DHT22;3367;48.714;8.994;2023-04-01T04:59:20;6.50;1.00
6662;DHT22;3367;48.714;8.994;2023-04-01T05:01:47;6.60;1.00
6662;DHT22;3367;48.714;8.994;2023-04-01T05:04:13;6.60;1.00
6662;DHT22;3367;48.714;8.994;2023-04-01T05:06:41;6.60;1.00
6662;DHT22;3367;48.714;8.994;2023-04-01T05:09:08;6.70;1.00
6662;DHT22;3367;48.714;8.994;2023-04-01T05:11:35;6.70;99.90
6662;DHT22;3367;48.714;8.994;2023-04-01T05:14:02;6.80;99.90
6662;DHT22;3367;48.714;8.994;2023-04-01T05:16:30;6.80;99.90
6662;DHT22;3367;48.714;8.994;2023-04-01T05:18:57;6.90;93.40
6662;DHT22;3367;48.714;8.994;2023-04-01T05:21:23;6.90;1.00
6662;DHT22;3367;48.714;8.994;2023-04-01T05:23:50;7.00;1.00
6662;DHT22;3367;48.714;8.994;2023-04-01T05:26:17;7.00;1.00
6662;DHT22;3367;48.714;8.994;2023-04-01T05:28:44;7.20;99.90
6662;DHT22;3367;48.714;8.994;2023-04-01T05:31:10;7.20;30.80
6662;DHT22;3367;48.714;8.994;2023-04-01T05:33:38;7.30;1.00
6662;DHT22;3367;48.714;8.994;2023-04-01T05:36:06;7.30;1.00
6662;DHT22;3367;48.714;8.994;2023-04-01T05:38:33;7.40;1.00
6662;DHT22;3367;48.714;8.994;2023-04-01T05:41:02;7.40;1.00
6662;DHT22;3367;48.714;8.994;2023-04-01T05:43:29;7.40;1.00
6662;DHT22;3367;48.714;8.994;2023-04-01T05:45:56;7.50;1.00
6662;DHT22;3367;48.714;8.994;2023-04-01T05:48:23;7.50;1.00
6662;DHT22;3367;48.714;8.994;2023-04-01T05:50:51;7.60;1.00
6662;DHT22;3367;48.714;8.994;2023-04-01T05:53:17;7.70;1.00
6662;DHT22;3367;48.714;8.994;2023-04-01T05:55:44;7.80;99.90
6662;DHT22;3367;48.714;8.994;2023-04-01T05:58:11;7.90;99.90
6662;DHT22;3367;48.714;8.994;2023-04-01T06:00:38;8.00;99.90
6662;DHT22;3367;48.714;8.994;2023-04-01T06:03:05;8.00;22.90
6662;DHT22;3367;48.714;8.994;2023-04-01T06:05:38;8.10;1.00
6662;DHT22;3367;48.714;8.994;2023-04-01T06:08:12;8.20;1.00
6662;DHT22;3367;48.714;8.994;2023-04-01T06:10:55;8.30;1.00
6662;DHT22;3367;48.714;8.994;2023-04-01T06:13:35;8.40;1.00
6662;DHT22;3367;48.714;8.994;2023-04-01T06:16:09;8.40;1.00
6662;DHT22;3367;48.714;8.994;2023-04-01T06:18:54;8.50;1.00
6662;DHT22;3367;48.714;8.994;2023-04-01T06:21:50;8.50;1.00
6662;DHT22;3367;48.714;8.994;2023-04-01T06:24:38;8.50;99.90
6662;DHT22;3367;48.714;8.994;2023-04-01T06:27:18;8.60;1.00
6662;DHT22;3367;48.714;8.994;2023-04-01T06:30:02;8.60;99.90
6662;DHT22;3367;48.714;8.994;2023-04-01T06:32:53;8.60;1.00
6662;DHT22;3367;48.714;8.994;2023-04-01T06:35:40;8.60;1.00
6662;DHT22;3367;48.714;8.994;2023-04-01T06:41:39;8.60;1.00
6662;DHT22;3367;48.714;8.994;2023-04-01T06:44:16;8.50;99.90
6662;DHT22;3367;48.714;8.994;2023-04-01T06:46:55;8.50;1.00
6662;DHT22;3367;48.714;8.994;2023-04-01T06:49:33;8.50;1.00
6662;DHT22;3367;48.714;8.994;2023-04-01T06:52:08;8.50;1.00
6662;DHT22;3367;48.714;8.994;2023-04-01T06:54:38;8.50;1.00
6662;DHT22;3367;48.714;8.994;2023-04-01T06:57:20;8.50;1.00
6662;DHT22;3367;48.714;8.994;2023-04-01T06:59:48;8.60;1.00
6662;DHT22;3367;48.714;8.994;2023-04-01T07:02:24;8.60;1.00
6662;DHT22;3367;48.714;8.994;2023-04-01T07:04:53;8.60;1.00
6662;DHT22;3367;48.714;8.994;2023-04-01T07:07:27;8.60;1.00
6662;DHT22;3367;48.714;8.994;2023-04-01T07:09:57;8.60;1.00
6662;DHT22;3367;48.714;8.994;2023-04-01T07:12:36;8.60;1.00
6662;DHT22;3367;48.714;8.994;2023-04-01T07:15:13;8.60;1.00
6662;DHT22;3367;48.714;8.994;2023-04-01T07:17:43;8.60;1.00
6662;DHT22;3367;48.714;8.994;2023-04-01T07:20:13;8.60;1.00
6662;DHT22;3367;48.714;8.994;2023-04-01T07:22:43;8.60;1.00
6662;DHT22;3367;48.714;8.994;2023-04-01T07:25:13;8.60;1.00
6662;DHT22;3367;48.714;8.994;2023-04-01T07:27:43;8.60;1.00
6662;DHT22;3367;48.714;8.994;2023-04-01T07:30:15;8.50;1.00
6662;DHT22;3367;48.714;8.994;2023-04-01T07:32:45;8.60;1.00
6662;DHT22;3367;48.714;8.994;2023-04-01T07:35:21;8.50;1.00
6662;DHT22;3367;48.714;8.994;2023-04-01T07:38:11;8.60;38.50
6662;DHT22;3367;48.714;8.994;2023-04-01T07:40:47;8.70;89.60
6662;DHT22;3367;48.714;8.994;2023-04-01T07:43:32;8.80;1.00
6662;DHT22;3367;48.714;8.994;2023-04-01T07:46:09;8.80;1.00
6662;DHT22;3367;48.714;8.994;2023-04-01T07:48:43;8.90;1.00
6662;DHT22;3367;48.714;8.994;2023-04-01T07:51:17;8.90;1.00
6662;DHT22;3367;48.714;8.994;2023-04-01T07:53:49;9.00;1.00
6662;DHT22;3367;48.714;8.994;2023-04-01T07:56:21;9.10;1.00
6662;DHT22;3367;48.714;8.994;2023-04-01T07:59:00;9.30;1.00
6662;DHT22;3367;48.714;8.994;2023-04-01T08:01:32;9.30;1.00
6662;DHT22;3367;48.714;8.994;2023-04-01T08:04:15;9.40;1.00
6662;DHT22;3367;48.714;8.994;2023-04-01T08:06:47;9.50;1.00
6662;DHT22;3367;48.714;8.994;2023-04-01T08:09:23;9.40;1.00
6662;DHT22;3367;48.714;8.994;2023-04-01T08:12:01;9.40;1.00
6662;DHT22;3367;48.714;8.994;2023-04-01T08:14:39;9.40;1.00
6662;DHT22;3367;48.714;8.994;2023-04-01T08:17:13;9.30;1.00
6662;DHT22;3367;48.714;8.994;2023-04-01T08:19:54;9.40;1.00
6662;DHT22;3367;48.714;8.994;2023-04-01T08:22:27;9.30;1.00
6662;DHT22;3367;48.714;8.994;2023-04-01T08:24:56;9.30;1.00
6662;DHT22;3367;48.714;8.994;2023-04-01T08:27:31;9.30;1.00
6662;DHT22;3367;48.714;8.994;2023-04-01T08:30:06;9.20;1.00
6662;DHT22;3367;48.714;8.994;2023-04-01T08:32:44;9.10;1.00
6662;DHT22;3367;48.714;8.994;2023-04-01T08:35:18;9.00;99.90
6662;DHT22;3367;48.714;8.994;2023-04-01T08:37:48;9.00;99.90
6662;DHT22;3367;48.714;8.994;2023-04-01T08:43:22;8.80;99.90
6662;DHT22;3367;48.714;8.994;2023-04-01T08:46:14;8.70;99.90
6662;DHT22;3367;48.714;8.994;2023-04-01T08:48:51;8.60;99.90
6662;DHT22;3367;48.714;8.994;2023-04-01T08:51:54;8.40;99.90
6662;DHT22;3367;48.714;8.994;2023-04-01T08:54:38;8.40;1.00
6662;DHT22;3367;48.714;8.994;2023-04-01T08:57:15;8.50;1.00
6662;DHT22;3367;48.714;8.994;2023-04-01T08:59:59;8.50;99.90
6662;DHT22;3367;48.714;8.994;2023-04-01T09:02:59;8.70;1.00
6662;DHT22;3367;48.714;8.994;2023-04-01T09:05:38;9.00;99.90
6662;DHT22;3367;48.714;8.994;2023-04-01T09:08:20;9.30;99.90
6662;DHT22;3367;48.714;8.994;2023-04-01T09:11:03;9.40;1.00
6662;DHT22;3367;48.714;8.994;2023-04-01T09:17:08;9.90;1.00
6662;DHT22;3367;48.714;8.994;2023-04-01T09:19:54;10.20;1.00
6662;DHT22;3367;48.714;8.994;2023-04-01T09:22:37;10.60;1.00
6662;DHT22;3367;48.714;8.994;2023-04-01T09:25:28;10.80;99.90
6662;DHT22;3367;48.714;8.994;2023-04-01T09:27:57;10.90;99.90
6662;DHT22;3367;48.714;8.994;2023-04-01T09:30:48;10.70;1.00
6662;DHT22;3367;48.714;8.994;2023-04-01T09:33:46;10.50;99.90
6662;DHT22;3367;48.714;8.994;2023-04-01T09:36:30;10.20;99.90
6662;DHT22;3367;48.714;8.994;2023-04-01T09:39:09;10.00;99.90
6662;DHT22;3367;48.714;8.994;2023-04-01T09:41:52;10.00;1.00
6662;DHT22;3367;48.714;8.994;2023-04-01T09:44:25;9.90;99.90
6662;DHT22;3367;48.714;8.994;2023-04-01T09:47:10;9.90;99.90
6662;DHT22;3367;48.714;8.994;2023-04-01T09:49:55;9.80;99.90
6662;DHT22;3367;48.714;8.994;2023-04-01T09:52:35;9.70;1.00
6662;DHT22;3367;48.714;8.994;2023-04-01T09:55:19;9.60;99.90
6662;DHT22;3367;48.714;8.994;2023-04-01T10:01:15;9.50;99.90
6662;DHT22;3367;48.714;8.994;2023-04-01T10:07:28;9.70;1.00
6662;DHT22;3367;48.714;8.994;2023-04-01T10:13:43;9.90;65.50
6662;DHT22;3367;48.714;8.994;2023-04-01T10:19:44;9.90;99.90
6662;DHT22;3367;48.714;8.994;2023-04-01T10:22:31;10.10;99.90
6662;DHT22;3367;48.714;8.994;2023-04-01T10:25:29;10.40;73.20
6662;DHT22;3367;48.714;8.994;2023-04-01T10:28:45;10.50;1.00
6662;DHT22;3367;48.714;8.994;2023-04-01T10:31:42;10.90;1.00
6662;DHT22;3367;48.714;8.994;2023-04-01T10:34:44;11.00;1.00
6662;DHT22;3367;48.714;8.994;2023-04-01T10:37:34;11.20;1.00
6662;DHT22;3367;48.714;8.994;2023-04-01T10:40:34;11.40;1.00
6662;DHT22;3367;48.714;8.994;2023-04-01T10:43:41;11.50;1.00
6662;DHT22;3367;48.714;8.994;2023-04-01T10:46:41;11.50;1.00
6662;DHT22;3367;48.714;8.994;2023-04-01T10:49:27;11.70;1.00
6662;DHT22;3367;48.714;8.994;2023-04-01T10:58:20;11.80;1.00
6662;DHT22;3367;48.714;8.994;2023-04-01T11:04:39;11.50;1.00
6662;DHT22;3367;48.714;8.994;2023-04-01T11:07:27;11.20;1.00
6662;DHT22;3367;48.714;8.994;2023-04-01T11:22:27;11.40;1.00
6662;DHT22;3367;48.714;8.994;2023-04-01T11:25:11;11.50;1.00
6662;DHT22;3367;48.714;8.994;2023-04-01T11:28:00;11.60;1.00
6662;DHT22;3367;48.714;8.994;2023-04-01T11:30:49;11.50;1.00
6662;DHT22;3367;48.714;8.994;2023-04-01T11:33:25;11.50;1.00
6662;DHT22;3367;48.714;8.994;2023-04-01T11:36:09;11.50;99.90
6662;DHT22;3367;48.714;8.994;2023-04-01T11:39:13;11.30;90.80
6662;DHT22;3367;48.714;8.994;2023-04-01T11:41:49;11.40;90.20
6662;DHT22;3367;48.714;8.994;2023-04-01T11:44:20;11.40;90.60
6662;DHT22;3367;48.714;8.994;2023-04-01T11:47:00;11.20;84.80
6662;DHT22;3367;48.714;8.994;2023-04-01T11:49:41;11.10;92.40
6662;DHT22;3367;48.714;8.994;2023-04-01T11:52:26;11.20;99.90
6662;DHT22;3367;48.714;8.994;2023-04-01T11:55:11;11.20;99.90
6662;DHT22;3367;48.714;8.994;2023-04-01T12:01:06;11.30;99.90
6662;DHT22;3367;48.714;8.994;2023-04-01T12:06:36;11.40;89.30
6662;DHT22;3367;48.714;8.994;2023-04-01T12:09:12;11.60;98.40
6662;DHT22;3367;48.714;8.994;2023-04-01T12:11:47;11.60;79.70
6662;DHT22;3367;48.714;8.994;2023-04-01T12:14:20;11.60;85.80
6662;DHT22;3367;48.714;8.994;2023-04-01T12:16:58;11.40;85.50
6662;DHT22;3367;48.714;8.994;2023-04-01T12:19:33;11.50;99.10
6662;DHT22;3367;48.714;8.994;2023-04-01T12:22:23;11.50;95.40
6662;DHT22;3367;48.714;8.994;2023-04-01T12:25:01;11.40;99.90
6662;DHT22;3367;48.714;8.994;2023-04-01T12:27:41;11.20;99.90
6662;DHT22;3367;48.714;8.994;2023-04-01T12:30:26;11.20;99.90
6662;DHT22;3367;48.714;8.994;2023-04-01T12:33:05;11.30;99.90
6662;DHT22;3367;48.714;8.994;2023-04-01T12:35:48;11.40;99.90
6662;DHT22;3367;48.714;8.994;2023-04-01T12:38:29;11.40;99.90
6662;DHT22;3367;48.714;8.994;2023-04-01T12:41:09;11.30;99.90
6662;DHT22;3367;48.714;8.994;2023-04-01T12:46:58;11.40;99.90
6662;DHT22;3367;48.714;8.994;2023-04-01T12:49:35;11.50;92.50
6662;DHT22;3367;48.714;8.994;2023-04-01T12:52:10;11.70;69.60
6662;DHT22;3367;48.714;8.994;2023-04-01T13:01:16;11.90;51.90
6662;DHT22;3367;48.714;8.994;2023-04-01T13:06:53;11.80;42.00
6662;DHT22;3367;48.714;8.994;2023-04-01T13:09:32;11.70;27.70
6662;DHT22;3367;48.714;8.994;2023-04-01T13:15:22;11.50;57.50
6662;DHT22;3367;48.714;8.994;2023-04-01T13:17:53;11.40;45.70
6662;DHT22;3367;48.714;8.994;2023-04-01T13:20:36;11.50;48.10
6662;DHT22;3367;48.714;8.994;2023-04-01T13:23:15;11.40;42.00
6662;DHT22;3367;48.714;8.994;2023-04-01T13:25:54;11.40;68.90
6662;DHT22;3367;48.714;8.994;2023-04-01T13:28:27;11.50;90.30
6662;DHT22;3367;48.714;8.994;2023-04-01T13:31:01;11.60;64.70
6662;DHT22;3367;48.714;8.994;2023-04-01T13:33:37;11.40;46.00
6662;DHT22;3367;48.714;8.994;2023-04-01T13:36:17;11.30;58.20
6662;DHT22;3367;48.714;8.994;2023-04-01T13:38:56;11.30;53.90
6662;DHT22;3367;48.714;8.994;2023-04-01T13:41:40;11.40;58.80
6662;DHT22;3367;48.714;8.994;2023-04-01T13:44:13;11.60;69.50
6662;DHT22;3367;48.714;8.994;2023-04-01T13:46:49;11.70;43.30
6662;DHT22;3367;48.714;8.994;2023-04-01T13:52:53;11.40;7.70
6662;DHT22;3367;48.714;8.994;2023-04-01T13:55:36;11.20;21.30
6662;DHT22;3367;48.714;8.994;2023-04-01T13:58:22;11.20;41.80
6662;DHT22;3367;48.714;8.994;2023-04-01T14:00:56;11.20;29.40
6662;DHT22;3367;48.714;8.994;2023-04-01T14:03:50;11.20;41.30
6662;DHT22;3367;48.714;8.994;2023-04-01T14:06:31;11.20;55.70
6662;DHT22;3367;48.714;8.994;2023-04-01T14:09:15;11.10;97.20
6662;DHT22;3367;48.714;8.994;2023-04-01T14:11:51;11.20;99.90
6662;DHT22;3367;48.714;8.994;2023-04-01T14:14:31;11.00;99.90
6662;DHT22;3367;48.714;8.994;2023-04-01T14:17:13;10.90;99.90
6662;DHT22;3367;48.714;8.994;2023-04-01T14:19:56;10.90;99.90
6662;DHT22;3367;48.714;8.994;2023-04-01T14:22:36;11.00;99.90
6662;DHT22;3367;48.714;8.994;2023-04-01T14:25:21;11.00;99.90
6662;DHT22;3367;48.714;8.994;2023-04-01T14:27:59;11.10;99.90
6662;DHT22;3367;48.714;8.994;2023-04-01T14:30:38;11.20;99.90
6662;DHT22;3367;48.714;8.994;2023-04-01T14:33:20;11.30;99.90
6662;DHT22;3367;48.714;8.994;2023-04-01T14:36:00;11.30;99.90
6662;DHT22;3367;48.714;8.994;2023-04-01T14:38:47;11.20;95.40
6662;DHT22;3367;48.714;8.994;2023-04-01T14:41:32;11.20;95.50
6662;DHT22;3367;48.714;8.994;2023-04-01T14:44:29;11.20;86.80
6662;DHT22;3367;48.714;8.994;2023-04-01T14:47:21;11.10;88.00
6662;DHT22;3367;48.714;8.994;2023-04-01T14:49:52;11.10;70.20
6662;DHT22;3367;48.714;8.994;2023-04-01T14:52:24;11.20;88.20
6662;DHT22;3367;48.714;8.994;2023-04-01T14:54:54;11.20;78.20
6662;DHT22;3367;48.714;8.994;2023-04-01T14:57:24;11.30;83.20
6662;DHT22;3367;48.714;8.994;2023-04-01T14:59:54;11.30;77.10
6662;DHT22;3367;48.714;8.994;2023-04-01T15:02:36;11.30;88.70
6662;DHT22;3367;48.714;8.994;2023-04-01T15:05:13;11.20;70.80
6662;DHT22;3367;48.714;8.994;2023-04-01T15:08:09;11.20;90.10
6662;DHT22;3367;48.714;8.994;2023-04-01T15:10:58;11.00;93.20
6662;DHT22;3367;48.714;8.994;2023-04-01T15:13:40;10.80;99.90
6662;DHT22;3367;48.714;8.994;2023-04-01T15:16:15;10.80;99.90
6662;DHT22;3367;48.714;8.994;2023-04-01T15:18:53;10.90;99.90
6662;DHT22;3367;48.714;8.994;2023-04-01T15:21:50;10.80;99.90
6662;DHT22;3367;48.714;8.994;2023-04-01T15:24:22;10.80;99.90
6662;DHT22;3367;48.714;8.994;2023-04-01T15:27:07;10.80;99.90
6662;DHT22;3367;48.714;8.994;2023-04-01T15:32:49;10.70;99.90
6662;DHT22;3367;48.714;8.994;2023-04-01T15:35:30;10.90;99.90
6662;DHT22;3367;48.714;8.994;2023-04-01T15:38:06;10.90;99.90
6662;DHT22;3367;48.714;8.994;2023-04-01T15:40:41;10.90;99.90
6662;DHT22;3367;48.714;8.994;2023-04-01T15:43:22;10.80;99.90
6662;DHT22;3367;48.714;8.994;2023-04-01T15:45:58;10.80;99.90
6662;DHT22;3367;48.714;8.994;2023-04-01T15:48:55;10.70;99.90
6662;DHT22;3367;48.714;8.994;2023-04-01T15:54:57;10.70;99.90
6662;DHT22;3367;48.714;8.994;2023-04-01T15:57:32;10.60;99.90
6662;DHT22;3367;48.714;8.994;2023-04-01T16:00:16;10.40;99.90
6662;DHT22;3367;48.714;8.994;2023-04-01T16:02:48;10.30;99.90
6662;DHT22;3367;48.714;8.994;2023-04-01T16:05:33;10.20;1.00
6662;DHT22;3367;48.714;8.994;2023-04-01T16:08:19;10.10;1.00
6662;DHT22;3367;48.714;8.994;2023-04-01T16:11:05;10.10;1.00
6662;DHT22;3367;48.714;8.994;2023-04-01T16:13:44;10.00;1.00
6662;DHT22;3367;48.714;8.994;2023-04-01T16:16:19;10.00;1.00
6662;DHT22;3367;48.714;8.994;2023-04-01T16:19:04;9.90;1.00
6662;DHT22;3367;48.714;8.994;2023-04-01T16:21:38;10.00;1.00
6662;DHT22;3367;48.714;8.994;2023-04-01T16:24:15;10.00;1.00
6662;DHT22;3367;48.714;8.994;2023-04-01T16:26:49;10.00;1.00
6662;DHT22;3367;48.714;8.994;2023-04-01T16:29:27;10.10;1.00
6662;DHT22;3367;48.714;8.994;2023-04-01T16:32:10;10.20;1.00
6662;DHT22;3367;48.714;8.994;2023-04-01T16:34:44;10.30;1.00
6662;DHT22;3367;48.714;8.994;2023-04-01T16:37:17;10.40;1.00
6662;DHT22;3367;48.714;8.994;2023-04-01T16:39:52;10.30;99.90
6662;DHT22;3367;48.714;8.994;2023-04-01T16:42:28;10.30;1.00
6662;DHT22;3367;48.714;8.994;2023-04-01T16:45:02;10.30;1.00
6662;DHT22;3367;48.714;8.994;2023-04-01T16:47:38;10.20;99.90
6662;DHT22;3367;48.714;8.994;2023-04-01T16:50:14;10.20;1.00
6662;DHT22;3367;48.714;8.994;2023-04-01T16:52:55;10.20;1.00
6662;DHT22;3367;48.714;8.994;2023-04-01T16:55:35;10.20;99.90
6662;DHT22;3367;48.714;8.994;2023-04-01T16:58:02;10.10;99.90
6662;DHT22;3367;48.714;8.994;2023-04-01T17:00:36;10.10;99.90
6662;DHT22;3367;48.714;8.994;2023-04-01T17:03:11;10.00;99.90
6662;DHT22;3367;48.714;8.994;2023-04-01T17:05:51;9.90;99.90
6662;DHT22;3367;48.714;8.994;2023-04-01T17:08:35;9.90;99.90
6662;DHT22;3367;48.714;8.994;2023-04-01T17:11:10;9.90;99.90
6662;DHT22;3367;48.714;8.994;2023-04-01T17:13:46;9.80;99.90
6662;DHT22;3367;48.714;8.994;2023-04-01T17:16:24;9.80;99.90
6662;DHT22;3367;48.714;8.994;2023-04-01T17:19:00;9.80;99.90
6662;DHT22;3367;48.714;8.994;2023-04-01T17:21:47;9.80;99.90
6662;DHT22;3367;48.714;8.994;2023-04-01T17:24:28;9.70;99.90
6662;DHT22;3367;48.714;8.994;2023-04-01T17:27:03;9.70;99.90
6662;DHT22;3367;48.714;8.994;2023-04-01T17:29:46;9.70;99.90
6662;DHT22;3367;48.714;8.994;2023-04-01T17:32:30;9.70;99.90
6662;DHT22;3367;48.714;8.994;2023-04-01T17:35:06;9.70;99.90
6662;DHT22;3367;48.714;8.994;2023-04-01T17:37:45;9.60;1.00
6662;DHT22;3367;48.714;8.994;2023-04-01T17:40:32;9.60;1.00
6662;DHT22;3367;48.714;8.994;2023-04-01T17:43:08;9.60;1.00
6662;DHT22;3367;48.714;8.994;2023-04-01T17:45:44;9.60;1.00
6662;DHT22;3367;48.714;8.994;2023-04-01T17:48:21;9.60;1.00
6662;DHT22;3367;48.714;8.994;2023-04-01T17:51:02;9.50;1.00
6662;DHT22;3367;48.714;8.994;2023-04-01T17:53:36;9.50;1.00
6662;DHT22;3367;48.714;8.994;2023-04-01T17:56:12;9.40;1.00
6662;DHT22;3367;48.714;8.994;2023-04-01T17:58:46;9.40;1.00
6662;DHT22;3367;48.714;8.994;2023-04-01T18:01:24;9.30;99.90
6662;DHT22;3367;48.714;8.994;2023-04-01T18:04:04;9.30;99.90
6662;DHT22;3367;48.714;8.994;2023-04-01T18:06:37;9.20;99.90
6662;DHT22;3367;48.714;8.994;2023-04-01T18:09:12;9.10;1.00
6662;DHT22;3367;48.714;8.994;2023-04-01T18:11:45;9.10;99.90
6662;DHT22;3367;48.714;8.994;2023-04-01T18:17:24;8.80;99.90
6662;DHT22;3367;48.714;8.994;2023-04-01T18:20:07;8.60;99.90
6662;DHT22;3367;48.714;8.994;2023-04-01T18:22:41;8.50;99.90
6662;DHT22;3367;48.714;8.994;2023-04-01T18:25:18;8.40;99.90
6662;DHT22;3367;48.714;8.994;2023-04-01T18:27:48;8.30;99.90
6662;DHT22;3367;48.714;8.994;2023-04-01T18:30:18;8.20;99.90
6662;DHT22;3367;48.714;8.994;2023-04-01T18:32:51;8.20;99.90
6662;DHT22;3367;48.714;8.994;2023-04-01T18:35:26;8.10;1.00